Time;durP1;ratioP1;P1;durP2;ratioP2;P2;SDS_P1;SDS_P2;PMS_P1;PMS_P2;Temp;Humidity;BMP_temperature;BMP_pressure;BME280_temperature;BME280_humidity;BME280_pressure;Samples;Min_cycle;Max_cycle;Signal;HPM_P1;HPM_P2
2022/05/30 00:01:09;;;;;;;5.77;4.40;;;;;;;21.15;64.11;98554.34;4991594;28;20191;-61
2022/05/30 00:03:36;;;;;;;10.27;4.77;;;;;;;21.03;63.76;98546.97;4990912;28;20315;-60
2022/05/30 00:06:06;;;;;;;5.40;4.60;;;;;;;21.03;63.97;98554.78;4991521;28;20222;-61
2022/05/30 00:08:33;;;;;;;5.17;4.47;;;;;;;21.00;64.24;98553.16;4991668;28;20199;-61
2022/05/30 00:11:02;;;;;;;4.90;3.80;;;;;;;20.97;64.25;98547.19;4991912;28;20201;-61
2022/05/30 00:13:30;;;;;;;5.50;4.20;;;;;;;20.94;64.28;98547.31;4992072;28;20198;-61
2022/05/30 00:15:57;;;;;;;7.53;5.10;;;;;;;20.92;64.17;98552.63;4990496;28;20440;-62
2022/05/30 00:18:24;;;;;;;5.73;4.47;;;;;;;20.94;64.26;98550.78;4991477;28;20198;-61
2022/05/30 00:20:51;;;;;;;5.17;4.53;;;;;;;20.97;64.06;98548.06;4991503;28;20226;-61
2022/05/30 00:23:18;;;;;;;6.37;4.70;;;;;;;20.97;64.00;98568.94;4991725;28;20204;-62
2022/05/30 00:25:45;;;;;;;5.87;4.40;;;;;;;20.99;63.97;98568.88;4991715;28;20194;-62
2022/05/30 00:28:12;;;;;;;4.97;4.00;;;;;;;20.86;63.87;98570.28;4991317;28;20199;-61
2022/05/30 00:30:41;;;;;;;4.80;4.33;;;;;;;20.83;64.04;98559.97;4991417;28;20202;-62
2022/05/30 00:33:08;;;;;;;6.00;4.47;;;;;;;20.91;63.72;98579.63;4991401;28;20191;-62
2022/05/30 00:35:34;;;;;;;8.33;4.50;;;;;;;20.93;63.38;98580.41;4991455;28;20629;-61
2022/05/30 00:38:01;;;;;;;5.70;4.33;;;;;;;20.91;63.44;98584.00;4991627;28;20205;-61
2022/05/30 00:40:28;;;;;;;6.95;5.05;;;;;;;20.90;63.63;98579.72;4990334;28;20447;-62
2022/05/30 00:42:55;;;;;;;7.60;4.57;;;;;;;20.92;63.21;98577.88;4991428;28;20194;-61
2022/05/30 00:45:22;;;;;;;5.50;4.30;;;;;;;20.94;62.67;98589.09;4991206;28;20190;-61
2022/05/30 00:47:51;;;;;;;6.07;4.40;;;;;;;20.91;62.85;98577.03;4991133;28;20218;-62
2022/05/30 00:50:19;;;;;;;5.17;4.23;;;;;;;20.84;63.02;98572.13;4990976;28;20183;-61
2022/05/30 00:52:46;;;;;;;9.37;4.97;;;;;;;20.83;63.26;98566.03;4991293;28;20573;-62
2022/05/30 00:55:16;;;;;;;6.32;4.80;;;;;;;20.71;63.45;98550.03;4989965;28;20448;-61
2022/05/30 00:57:44;;;;;;;6.10;4.30;;;;;;;20.94;62.80;98576.91;4990988;28;20677;-62
2022/05/30 01:00:14;;;;;;;4.73;4.27;;;;;;;20.93;62.62;98577.81;4990910;28;20194;-61
2022/05/30 01:02:42;;;;;;;13.30;4.43;;;;;;;20.94;62.61;98589.09;4991137;28;20201;-61
2022/05/30 01:07:59;;;;;;;9.27;4.97;;;;;;;20.82;62.97;98589.59;4990954;28;20276;-61
2022/05/30 01:10:26;;;;;;;6.70;3.90;;;;;;;20.81;63.35;98587.91;4991157;28;20205;-61
2022/05/30 01:12:55;;;;;;;5.50;4.93;;;;;;;20.78;63.71;98591.47;4990869;28;20692;-61
2022/05/30 01:15:25;;;;;;;5.60;4.20;;;;;;;20.75;64.01;98590.75;4991140;28;20210;-61
2022/05/30 01:17:57;;;;;;;9.63;4.50;;;;;;;20.76;63.85;98589.84;4991165;28;20440;-61
2022/05/30 01:20:35;;;;;;;7.77;4.60;;;;;;;20.76;64.03;98592.47;4990859;28;20198;-61
2022/05/30 01:23:16;;;;;;;5.10;4.10;;;;;;;20.79;63.54;98581.91;4990620;28;20293;-62
2022/05/30 01:26:04;;;;;;;6.40;4.70;;;;;;;20.85;63.17;98594.72;4990747;28;20201;-61
2022/05/30 01:28:41;;;;;;;5.77;4.93;;;;;;;20.82;63.47;98584.38;4990945;28;20190;-61
2022/05/30 01:31:08;;;;;;;5.73;4.70;;;;;;;20.84;63.55;98588.63;4990702;28;20194;-61
2022/05/30 01:33:35;;;;;;;7.72;4.70;;;;;;;20.87;63.22;98585.06;4989743;28;20445;-61
2022/05/30 01:36:02;;;;;;;5.77;4.83;;;;;;;20.92;63.09;98593.53;4990708;28;20313;-61
2022/05/30 01:38:29;;;;;;;7.63;4.63;;;;;;;20.92;62.93;98589.19;4990958;28;20198;-61
2022/05/30 01:40:56;;;;;;;5.73;4.10;;;;;;;20.89;62.60;98594.53;4990712;28;20195;-61
2022/05/30 01:43:23;;;;;;;13.57;5.03;;;;;;;20.85;62.86;98600.75;4990692;28;20194;-61
2022/05/30 01:45:51;;;;;;;8.63;4.60;;;;;;;20.75;63.19;98594.22;4990704;28;20210;-61
2022/05/30 01:48:18;;;;;;;7.00;4.40;;;;;;;20.76;63.28;98600.28;4990894;28;20206;-61
2022/05/30 01:50:47;;;;;;;7.87;4.93;;;;;;;20.76;63.05;98592.47;4990971;28;20190;-61
2022/05/30 01:53:14;;;;;;;8.53;5.00;;;;;;;20.77;63.12;98600.22;4990879;28;20190;-61
2022/05/30 01:55:41;;;;;;;5.00;4.47;;;;;;;20.71;63.41;98591.78;4990610;28;20755;-61
2022/05/30 01:58:07;;;;;;;7.38;5.03;;;;;;;20.68;64.00;98599.72;4989681;28;20446;-62
2022/05/30 02:00:36;;;;;;;7.53;4.50;;;;;;;20.69;63.66;98590.97;4991718;28;20201;-61
2022/05/30 02:03:04;;;;;;;7.50;4.30;;;;;;;20.65;63.96;98589.41;4994208;28;20232;-62
2022/05/30 02:05:33;;;;;;;6.87;4.60;;;;;;;20.60;63.87;98594.81;4993882;28;20249;-62
2022/05/30 02:08:01;;;;;;;6.20;4.40;;;;;;;20.52;64.10;98597.69;4990953;28;20264;-61
2022/05/30 02:10:29;;;;;;;6.77;4.50;;;;;;;20.44;64.63;98607.56;4994330;28;20186;-61
2022/05/30 02:12:56;;;;;;;5.70;4.63;;;;;;;20.40;64.95;98611.22;4993803;28;20785;-61
2022/05/30 02:15:22;;;;;;;9.77;4.67;;;;;;;20.37;65.18;98613.94;4993778;28;20202;-61
2022/05/30 02:17:48;;;;;;;6.73;4.70;;;;;;;20.25;65.71;98609.16;4994115;28;20179;-63
2022/05/30 02:20:17;;;;;;;4.80;4.40;;;;;;;20.24;65.85;98607.50;4993873;28;20198;-61
2022/05/30 02:22:45;;;;;;;7.57;4.50;;;;;;;20.19;66.71;98611.13;4993544;28;20229;-61
2022/05/30 02:25:13;;;;;;;8.60;4.70;;;;;;;20.12;67.19;98615.72;4993832;28;20193;-62
2022/05/30 02:27:41;;;;;;;10.13;4.97;;;;;;;20.01;67.91;98613.50;4993497;28;20221;-61
2022/05/30 02:30:09;;;;;;;5.63;5.13;;;;;;;19.95;68.50;98615.47;4993602;28;20253;-62
2022/05/30 02:32:36;;;;;;;5.77;4.90;;;;;;;19.96;68.90;98614.56;4993804;28;20178;-61
2022/05/30 02:37:49;;;;;;;10.20;5.47;;;;;;;19.82;69.82;98625.47;4993576;28;20173;-62
2022/05/30 02:40:16;;;;;;;6.23;5.07;;;;;;;19.77;69.83;98630.00;4986387;28;20206;-62
2022/05/30 02:42:45;;;;;;;6.80;5.03;;;;;;;19.68;70.59;98627.72;4980473;28;20673;-62
2022/05/30 02:45:12;;;;;;;11.40;5.17;;;;;;;19.69;70.60;98629.44;4974118;28;20183;-61
2022/05/30 02:47:38;;;;;;;9.40;5.33;;;;;;;19.63;71.34;98637.44;4974124;28;20214;-62
2022/05/30 02:50:06;;;;;;;9.13;5.43;;;;;;;19.57;71.88;98642.00;4973856;28;20202;-61
2022/05/30 02:52:33;;;;;;;8.20;6.00;;;;;;;19.55;71.66;98641.19;4972870;28;20450;-61
2022/05/30 02:55:01;;;;;;;9.13;5.77;;;;;;;19.63;71.08;98655.69;4973788;28;20643;-61
2022/05/30 02:57:29;;;;;;;8.07;5.60;;;;;;;19.59;71.04;98654.06;4973563;28;20194;-61
2022/05/30 02:59:56;;;;;;;5.93;4.97;;;;;;;19.63;71.05;98660.03;4973542;28;20690;-61
2022/05/30 03:02:22;;;;;;;11.17;5.70;;;;;;;19.65;70.95;98669.50;4973859;28;20219;-61
2022/05/30 03:04:49;;;;;;;8.60;5.20;;;;;;;19.67;70.97;98672.91;4973636;28;20199;-61
2022/05/30 03:07:16;;;;;;;8.30;5.23;;;;;;;19.61;71.02;98680.94;4973597;28;20223;-61
2022/05/30 03:09:45;;;;;;;5.80;5.30;;;;;;;19.63;71.21;98688.72;4973271;28;20191;-61
2022/05/30 03:12:13;;;;;;;6.50;5.20;;;;;;;19.63;71.11;98696.53;4972846;28;20226;-61
2022/05/30 03:14:40;;;;;;;9.53;5.37;;;;;;;19.56;71.52;98695.88;4973206;28;20206;-61
2022/05/30 03:17:07;;;;;;;9.25;5.55;;;;;;;19.52;71.94;98693.41;4975455;28;20499;-61
2022/05/30 03:19:34;;;;;;;6.10;5.07;;;;;;;19.69;71.04;98706.75;4992670;28;20190;-61
2022/05/30 03:22:01;;;;;;;5.77;4.90;;;;;;;19.82;70.84;98708.03;4992396;28;20230;-59
2022/05/30 03:24:27;;;;;;;5.20;4.70;;;;;;;19.91;70.19;98724.22;4992976;28;20194;-61
2022/05/30 03:26:54;;;;;;;7.83;5.27;;;;;;;20.05;69.61;98722.91;4992390;28;20224;-62
2022/05/30 03:29:23;;;;;;;6.63;4.47;;;;;;;20.11;69.19;98726.16;4992535;28;20694;-62
2022/05/30 03:31:50;;;;;;;7.97;5.05;;;;;;;20.27;68.22;98731.75;4991383;28;20444;-61
2022/05/30 03:34:17;;;;;;;5.07;4.40;;;;;;;20.44;67.22;98730.22;4992177;28;20186;-62
2022/05/30 03:36:44;;;;;;;8.57;4.83;;;;;;;20.58;66.73;98734.94;4984671;28;20203;-60
2022/05/30 03:39:10;;;;;;;8.57;4.90;;;;;;;20.69;66.26;98740.63;4980327;28;20207;-61
2022/05/30 03:41:37;;;;;;;6.50;5.17;;;;;;;20.72;65.59;98750.09;4972963;28;20217;-61
2022/05/30 03:44:05;;;;;;;6.83;5.03;;;;;;;20.59;66.24;98753.19;4972914;28;20205;-62
2022/05/30 03:46:33;;;;;;;6.03;4.60;;;;;;;20.68;66.06;98749.38;4991789;28;20202;-62
2022/05/30 03:49:00;;;;;;;7.97;4.97;;;;;;;20.69;65.46;98758.06;4991949;28;20198;-61
2022/05/30 03:51:27;;;;;;;7.77;5.03;;;;;;;20.83;65.10;98754.03;4992255;28;20205;-62
2022/05/30 03:53:55;;;;;;;8.90;4.50;;;;;;;20.71;65.25;98761.47;4991622;28;20194;-61
2022/05/30 03:56:22;;;;;;;7.80;5.07;;;;;;;20.74;65.07;98759.59;4992252;28;20629;-61
2022/05/30 03:58:49;;;;;;;8.13;5.03;;;;;;;20.53;65.90;98763.84;4991889;28;20220;-61
2022/05/30 04:01:16;;;;;;;5.57;4.47;;;;;;;20.57;66.04;98769.81;4990175;28;20199;-62
2022/05/30 04:03:44;;;;;;;8.00;4.83;;;;;;;20.55;65.51;98761.16;4991746;28;20202;-61
2022/05/30 04:06:11;;;;;;;12.07;5.53;;;;;;;20.62;65.46;98780.06;4990028;28;20620;-62
2022/05/30 04:08:38;;;;;;;8.27;4.90;;;;;;;20.60;64.93;98783.56;4991321;28;20541;-61
2022/05/30 04:11:05;;;;;;;6.47;4.20;;;;;;;20.56;65.20;98775.91;4991138;28;20670;-61
2022/05/30 04:13:32;;;;;;;5.53;4.43;;;;;;;20.62;64.77;98772.25;4991021;28;20190;-62
2022/05/30 04:16:07;;;;;;;5.80;4.67;;;;;;;20.69;64.50;98778.94;4991669;28;20190;-61
2022/05/30 04:18:34;;;;;;;4.90;4.40;;;;;;;20.79;64.31;98780.31;4989931;28;20197;-61
2022/05/30 04:21:02;;;;;;;6.70;5.63;;;;;;;20.88;63.53;98777.34;4991192;28;20230;-61
2022/05/30 04:23:29;;;;;;;5.77;5.17;;;;;;;20.88;63.61;98782.59;4988562;28;20191;-62
2022/05/30 04:25:56;;;;;;;5.73;5.07;;;;;;;20.95;63.33;98774.50;4990203;28;20198;-61
2022/05/30 04:28:23;;;;;;;7.40;5.20;;;;;;;20.91;62.44;98777.25;4990248;28;20448;-60
2022/05/30 04:30:50;;;;;;;9.27;4.77;;;;;;;21.07;62.50;98775.81;4991296;28;20194;-60
2022/05/30 04:33:17;;;;;;;8.97;4.67;;;;;;;21.20;62.30;98779.69;4991402;28;20665;-62
2022/05/30 04:35:44;;;;;;;5.93;4.97;;;;;;;21.23;62.34;98779.56;4991213;28;20201;-62
2022/05/30 04:38:12;;;;;;;6.90;5.00;;;;;;;21.27;62.37;98788.97;4991552;28;20186;-61
2022/05/30 04:40:39;;;;;;;6.47;5.13;;;;;;;21.23;62.39;98781.31;4991448;28;20194;-62
2022/05/30 04:43:06;;;;;;;6.97;5.47;;;;;;;21.31;62.34;98795.81;4991075;28;20696;-61
2022/05/30 04:45:32;;;;;;;8.37;5.73;;;;;;;21.39;62.05;98800.72;4991228;28;20199;-62
2022/05/30 04:48:01;;;;;;;6.90;5.33;;;;;;;21.50;61.90;98796.78;4990977;28;20222;-62
2022/05/30 04:50:27;;;;;;;7.88;5.28;;;;;;;21.34;61.84;98800.91;4990706;28;20923;-62
2022/05/30 04:52:54;;;;;;;9.47;5.80;;;;;;;21.47;62.25;98793.44;4991252;28;20202;-63
2022/05/30 04:55:22;;;;;;;6.83;5.50;;;;;;;21.56;61.99;98798.31;4990982;28;20194;-62
2022/05/30 04:57:52;;;;;;;5.53;5.03;;;;;;;21.58;61.65;98797.34;4988563;28;20677;-62
2022/05/30 05:00:21;;;;;;;7.57;4.43;;;;;;;21.65;60.38;98800.56;4990833;28;20281;-61
2022/05/30 05:02:48;;;;;;;8.73;4.40;;;;;;;21.67;60.30;98791.72;4990593;28;20194;-62
2022/05/30 05:05:15;;;;;;;10.53;4.87;;;;;;;21.74;59.94;98795.81;4991011;28;20199;-63
2022/05/30 05:07:55;;;;;;;5.97;3.93;;;;;;;21.71;59.64;98806.41;4990568;28;20221;-62
2022/05/30 05:10:46;;;;;;;9.00;5.03;;;;;;;21.73;59.86;98801.94;4990660;28;20218;-62
2022/05/30 05:13:12;;;;;;;6.53;5.20;;;;;;;21.86;59.84;98804.94;4989376;28;20447;-62
2022/05/30 05:15:39;;;;;;;9.10;5.10;;;;;;;21.91;58.93;98804.78;4990358;28;20198;-62
2022/05/30 05:18:06;;;;;;;5.97;4.90;;;;;;;21.99;58.80;98808.78;4990260;28;20197;-62
2022/05/30 05:20:37;;;;;;;8.80;5.10;;;;;;;22.04;58.51;98809.44;4990349;28;20213;-60
2022/05/30 05:23:04;;;;;;;6.90;4.80;;;;;;;22.14;58.49;98810.75;4990126;28;20554;-62
2022/05/30 05:25:31;;;;;;;6.23;4.17;;;;;;;22.22;57.75;98805.25;4990428;28;20193;-62
2022/05/30 05:27:59;;;;;;;6.90;4.80;;;;;;;22.25;57.83;98807.69;4990344;28;20214;-62
2022/05/30 05:30:26;;;;;;;5.73;4.40;;;;;;;22.21;57.58;98819.22;4987999;28;20186;-62
2022/05/30 05:32:53;;;;;;;8.52;5.40;;;;;;;22.23;57.54;98815.63;4988695;28;20799;-63
2022/05/30 05:35:20;;;;;;;6.93;4.50;;;;;;;22.29;57.46;98806.66;4988788;28;20202;-62
2022/05/30 05:37:47;;;;;;;5.50;4.43;;;;;;;22.36;57.07;98823.81;4993630;28;20213;-61
2022/05/30 05:40:13;;;;;;;14.60;4.93;;;;;;;22.42;57.14;98815.69;4993180;28;20676;-63
2022/05/30 05:42:40;;;;;;;10.17;5.10;;;;;;;22.49;57.17;98835.47;4993553;28;20585;-62
2022/05/30 05:45:10;;;;;;;7.37;4.83;;;;;;;22.47;57.47;98841.72;4993705;28;20190;-62
2022/05/30 05:47:37;;;;;;;5.73;5.07;;;;;;;22.36;56.26;98834.28;4993379;28;20211;-63
2022/05/30 05:50:05;;;;;;;8.40;5.50;;;;;;;22.21;56.58;98814.00;4992285;28;20910;-61
2022/05/30 05:52:32;;;;;;;5.30;4.80;;;;;;;22.56;55.92;98855.25;4993702;28;20250;-62
2022/05/30 05:55:00;;;;;;;9.80;4.77;;;;;;;22.52;56.17;98843.22;4990172;28;20641;-62
2022/05/30 05:57:27;;;;;;;7.83;4.40;;;;;;;22.53;55.94;98847.50;4992340;28;20225;-63
2022/05/30 05:59:54;;;;;;;6.63;5.33;;;;;;;22.60;55.74;98843.75;4993461;28;20202;-63
2022/05/30 06:02:23;;;;;;;6.90;5.40;;;;;;;22.74;55.46;98862.34;4993535;28;20205;-63
2022/05/30 06:04:52;;;;;;;5.17;4.70;;;;;;;22.73;54.90;98850.19;4993664;28;20186;-62
2022/05/30 06:07:19;;;;;;;7.10;5.40;;;;;;;22.64;54.92;98855.81;4993784;28;20447;-63
2022/05/30 06:09:46;;;;;;;6.07;4.83;;;;;;;22.81;54.73;98862.94;4994095;28;20201;-63
2022/05/30 06:12:13;;;;;;;9.30;5.13;;;;;;;22.94;53.97;98871.97;4993717;28;20202;-61
2022/05/30 06:14:40;;;;;;;7.10;5.17;;;;;;;22.90;54.69;98852.91;4992758;28;20289;-63
2022/05/30 06:17:07;;;;;;;7.63;6.00;;;;;;;22.97;55.18;98865.72;4992897;28;21049;-63
2022/05/30 06:19:36;;;;;;;10.07;5.60;;;;;;;23.13;54.44;98875.47;4993363;28;20212;-63
2022/05/30 06:22:03;;;;;;;10.10;5.80;;;;;;;22.93;54.90;98867.66;4993189;28;20727;-61
2022/05/30 06:24:29;;;;;;;6.97;5.67;;;;;;;22.98;55.08;98867.44;4992892;28;20194;-63
2022/05/30 06:26:56;;;;;;;7.13;5.87;;;;;;;22.95;54.92;98870.19;4993194;28;20198;-63
2022/05/30 06:29:23;;;;;;;8.33;6.17;;;;;;;22.95;55.75;98870.19;4993233;28;20218;-63
2022/05/30 06:31:50;;;;;;;11.32;6.85;;;;;;;22.84;55.82;98862.81;4992262;28;20834;-63
2022/05/30 06:34:17;;;;;;;8.87;6.40;;;;;;;22.96;56.11;98871.91;4993098;28;20205;-61
2022/05/30 06:36:45;;;;;;;9.90;6.43;;;;;;;23.05;56.45;98871.47;4993459;28;20192;-63
2022/05/30 06:39:12;;;;;;;8.47;6.97;;;;;;;23.03;55.69;98855.00;4993401;28;20195;-63
2022/05/30 06:41:42;;;;;;;7.07;6.37;;;;;;;23.21;55.79;98877.78;4993284;28;20709;-61
2022/05/30 06:44:10;;;;;;;9.10;6.60;;;;;;;23.19;56.24;98863.88;4992963;28;20724;-61
2022/05/30 06:46:38;;;;;;;8.95;6.82;;;;;;;23.26;55.20;98867.94;4991480;28;20440;-61
2022/05/30 06:49:07;;;;;;;8.27;6.63;;;;;;;23.36;54.50;98874.44;4993049;28;20226;-61
2022/05/30 06:51:35;;;;;;;10.33;7.23;;;;;;;23.45;53.64;98867.06;4993246;28;20195;-63
2022/05/30 06:54:05;;;;;;;11.63;7.50;;;;;;;23.56;54.05;98878.81;4992999;28;20195;-63
2022/05/30 06:56:34;;;;;;;10.00;7.23;;;;;;;23.48;53.23;98873.94;4993030;28;20198;-62
2022/05/30 06:59:01;;;;;;;8.23;7.47;;;;;;;23.54;53.28;98884.13;4992686;28;20198;-62
2022/05/30 07:01:31;;;;;;;10.03;7.63;;;;;;;23.58;53.57;98869.09;4992826;28;20194;-61
2022/05/30 07:03:57;;;;;;;7.10;6.40;;;;;;;23.58;52.41;98872.59;4992505;28;20187;-62
2022/05/30 07:06:26;;;;;;;7.53;6.63;;;;;;;23.59;51.85;98878.69;4992621;28;20190;-63
2022/05/30 07:08:53;;;;;;;6.53;5.93;;;;;;;23.65;51.99;98879.22;4992969;28;20558;-63
2022/05/30 07:11:24;;;;;;;10.43;6.60;;;;;;;23.77;51.96;98875.19;4991578;28;20448;-62
2022/05/30 07:13:52;;;;;;;8.67;6.83;;;;;;;23.99;51.64;98870.63;4992375;28;20189;-61
2022/05/30 07:16:19;;;;;;;8.47;5.83;;;;;;;24.00;51.12;98888.09;4992353;28;20215;-61
2022/05/30 07:18:47;;;;;;;9.90;5.60;;;;;;;23.95;51.07;98879.59;4992643;28;20364;-62
2022/05/30 07:21:15;;;;;;;7.50;5.73;;;;;;;23.95;51.18;98869.91;4992164;28;20288;-63
2022/05/30 07:23:42;;;;;;;10.60;5.77;;;;;;;24.10;51.51;98875.38;4991920;28;20194;-61
2022/05/30 07:26:14;;;;;;;9.00;6.20;;;;;;;24.24;50.52;98863.31;4991411;28;20451;-62
2022/05/30 07:28:42;;;;;;;9.00;5.77;;;;;;;24.33;50.25;98870.75;4992164;28;20269;-63
2022/05/30 07:31:11;;;;;;;5.77;5.20;;;;;;;24.36;49.74;98864.47;4991984;28;20254;-55
2022/05/30 07:33:39;;;;;;;8.00;5.07;;;;;;;24.42;49.23;98874.69;4991610;28;20202;-55
2022/05/30 07:36:09;;;;;;;7.40;4.87;;;;;;;24.34;49.22;98879.44;4991390;28;20190;-55
2022/05/30 07:38:37;;;;;;;8.63;5.43;;;;;;;24.27;49.14;98865.78;4990823;28;20226;-55
2022/05/30 07:41:04;;;;;;;7.60;5.03;;;;;;;24.44;49.86;98875.44;4991643;28;20191;-56
2022/05/30 07:43:31;;;;;;;7.40;5.70;;;;;;;24.52;49.45;98878.53;4991426;28;20248;-56
2022/05/30 07:46:02;;;;;;;6.50;5.03;;;;;;;24.53;48.49;98878.44;4991584;28;20202;-56
2022/05/30 07:48:29;;;;;;;9.40;5.70;;;;;;;24.62;49.25;98882.41;4991442;28;20681;-56
2022/05/30 07:50:56;;;;;;;5.97;5.37;;;;;;;24.58;49.04;98849.34;4991405;28;20190;-56
2022/05/30 07:53:23;;;;;;;13.03;5.57;;;;;;;24.76;48.55;98893.06;4991372;28;20272;-55
2022/05/30 07:55:50;;;;;;;7.63;5.17;;;;;;;24.69;49.98;98888.22;4991518;28;20244;-55
2022/05/30 07:58:17;;;;;;;6.33;4.97;;;;;;;24.67;48.47;98886.50;4991218;28;20198;-55
2022/05/30 08:00:44;;;;;;;8.13;5.00;;;;;;;24.72;49.51;98886.28;4990929;28;20194;-55
2022/05/30 08:03:14;;;;;;;6.47;4.90;;;;;;;24.77;48.53;98886.91;4991077;28;20197;-55
2022/05/30 08:05:43;;;;;;;7.77;5.40;;;;;;;24.80;48.70;98878.03;4990955;28;20194;-56
2022/05/30 08:08:10;;;;;;;14.30;6.68;;;;;;;24.98;49.46;98891.06;4991004;28;20225;-57
2022/05/30 08:10:37;;;;;;;8.73;6.17;;;;;;;24.96;47.58;98887.69;4990841;28;20222;-56
2022/05/30 08:13:05;;;;;;;6.67;5.70;;;;;;;25.10;47.88;98900.97;4990533;28;20194;-56
2022/05/30 08:15:32;;;;;;;8.70;5.70;;;;;;;25.16;47.71;98890.09;4990679;28;20274;-56
2022/05/30 08:18:00;;;;;;;6.90;5.27;;;;;;;25.32;47.33;98889.31;4990310;28;20197;-56
2022/05/30 08:20:33;;;;;;;5.60;4.83;;;;;;;25.37;46.51;98890.75;4990358;28;20720;-55
2022/05/30 08:23:00;;;;;;;8.97;5.13;;;;;;;25.42;46.39;98895.78;4990236;28;20266;-55
2022/05/30 08:25:27;;;;;;;7.57;5.90;;;;;;;25.57;46.21;98897.63;4990073;28;20205;-55
2022/05/30 08:27:54;;;;;;;8.07;5.45;;;;;;;25.64;46.57;98893.72;4989582;28;20950;-56
2022/05/30 08:30:21;;;;;;;7.87;6.20;;;;;;;25.54;46.89;98863.59;4990019;28;20218;-56
2022/05/30 08:32:48;;;;;;;6.30;5.40;;;;;;;25.65;45.89;98906.81;4989754;28;20198;-55
2022/05/30 08:35:18;;;;;;;11.90;5.27;;;;;;;25.59;46.32;98901.00;4990205;28;20664;-55
2022/05/30 08:37:47;;;;;;;8.60;6.00;;;;;;;25.56;46.55;98895.91;4989962;28;20222;-56
2022/05/30 08:43:09;;;;;;;7.97;5.60;;;;;;;25.60;46.85;98902.72;4990094;28;20685;-57
2022/05/30 08:45:37;;;;;;;6.73;5.63;;;;;;;25.60;47.23;98906.19;4990562;28;20202;-56
2022/05/30 08:48:11;;;;;;;8.63;5.40;;;;;;;25.54;46.45;98910.94;4990238;28;20285;-56
2022/05/30 08:50:44;;;;;;;10.63;6.13;;;;;;;25.76;46.91;98908.84;4990107;28;20233;-56
2022/05/30 08:53:36;;;;;;;6.57;5.73;;;;;;;25.94;46.00;98907.81;5001276;28;20201;-56
2022/05/30 08:56:12;;;;;;;8.68;5.88;;;;;;;26.11;46.58;98913.00;5002532;28;20209;-56
2022/05/30 08:58:52;;;;;;;6.68;5.85;;;;;;;26.11;46.33;98894.56;4997558;28;20219;-57
2022/05/30 09:01:23;;;;;;;10.70;6.37;;;;;;;26.12;45.73;98906.78;4987794;28;20675;-56
2022/05/30 09:06:38;;;;;;;7.28;6.57;;;;;;;26.50;45.93;98907.28;4977951;28;20850;-56
2022/05/30 09:09:15;;;;;;;7.38;5.68;;;;;;;26.64;44.39;98925.78;4989629;28;20224;-56
2022/05/30 09:11:46;;;;;;;10.82;5.45;;;;;;;26.51;43.68;98916.06;4995939;28;20595;-56
2022/05/30 09:14:16;;;;;;;9.70;6.15;;;;;;;26.44;44.47;98890.97;4996430;28;20320;-56
2022/05/30 09:16:48;;;;;;;6.55;5.85;;;;;;;26.65;44.10;98906.38;4996364;28;20194;-56
2022/05/30 09:19:18;;;;;;;8.48;5.75;;;;;;;26.75;44.07;98914.63;4994418;28;20576;-56
2022/05/30 09:21:45;;;;;;;10.25;5.47;;;;;;;26.74;42.78;98918.19;4996151;28;20233;-56
2022/05/30 09:24:16;;;;;;;7.65;6.00;;;;;;;26.84;42.73;98919.38;4993654;28;20942;-56
2022/05/30 09:26:43;;;;;;;8.85;4.93;;;;;;;26.82;40.89;98939.69;4993507;28;20202;-56
2022/05/30 09:29:15;;;;;;;6.68;4.60;;;;;;;26.67;40.33;98917.69;4996158;28;20240;-57
2022/05/30 09:32:00;;;;;;;8.70;5.43;;;;;;;26.76;40.51;98919.78;4993530;28;20198;-55
2022/05/30 09:34:40;;;;;;;7.80;5.30;;;;;;;26.81;41.01;98924.84;4993918;28;20193;-62
2022/05/30 09:37:08;;;;;;;6.47;4.97;;;;;;;26.90;40.33;98919.00;4993867;28;20186;-63
2022/05/30 09:39:48;;;;;;;5.13;4.63;;;;;;;26.86;40.01;98893.78;4995937;28;20201;-62
2022/05/30 09:42:25;;;;;;;8.43;5.13;;;;;;;27.15;40.01;98918.38;4995738;28;20190;-62
2022/05/30 09:44:56;;;;;;;5.82;5.20;;;;;;;27.23;40.16;98918.78;4994693;28;20205;-62
2022/05/30 09:47:23;;;;;;;6.70;4.90;;;;;;;27.24;39.18;98928.41;4993731;28;20795;-56
2022/05/30 09:49:52;;;;;;;6.65;5.00;;;;;;;27.15;39.96;98918.38;4995775;28;20269;-55
2022/05/30 09:52:35;;;;;;;9.07;5.07;;;;;;;26.97;40.04;98861.50;4994793;28;20197;-55
2022/05/30 09:55:25;;;;;;;5.82;5.10;;;;;;;27.28;39.86;98914.06;4995740;28;20244;-55
2022/05/30 09:57:54;;;;;;;9.90;5.30;;;;;;;27.42;40.58;98917.59;4994392;28;20202;-56
2022/05/30 10:00:33;;;;;;;7.97;5.10;;;;;;;27.49;39.41;98912.81;4995518;28;20610;-55
2022/05/30 10:03:03;;;;;;;6.25;4.78;;;;;;;27.68;39.86;98913.34;4995646;28;20256;-55
2022/05/30 10:05:33;;;;;;;6.72;5.13;;;;;;;27.68;38.87;98916.00;4997414;28;20190;-55
2022/05/30 10:08:02;;;;;;;9.57;5.18;;;;;;;27.69;38.73;98914.22;4995933;28;20436;-55
2022/05/30 10:10:33;;;;;;;6.95;5.20;;;;;;;27.71;39.09;98891.19;4997012;28;20574;-55
2022/05/30 10:13:01;;;;;;;9.82;6.15;;;;;;;27.96;39.73;98909.81;4996209;28;20190;-55
2022/05/30 10:15:31;;;;;;;8.00;4.90;;;;;;;28.08;38.93;98914.34;4995588;28;20209;-55
2022/05/30 10:18:18;;;;;;;6.75;5.38;;;;;;;28.26;38.48;98917.59;4995758;28;20194;-55
2022/05/30 10:21:00;;;;;;;5.60;4.97;;;;;;;28.08;37.88;98882.63;4995438;28;20230;-55
2022/05/30 10:29:31;;;;;;;5.82;4.78;;;;;;;28.42;37.21;98911.22;4991283;28;20240;-54
2022/05/30 10:32:06;;;;;;;6.15;4.63;;;;;;;28.43;37.99;98917.34;4992197;28;20205;-55
2022/05/30 10:34:51;;;;;;;5.90;4.38;;;;;;;28.49;38.25;98911.63;4992623;28;20193;-55
2022/05/30 10:37:40;;;;;;;6.97;5.07;;;;;;;28.52;37.63;98911.44;4991212;28;20527;-56
2022/05/30 10:40:18;;;;;;;5.18;4.50;;;;;;;28.62;36.99;98909.91;4992669;28;20191;-56
2022/05/30 10:42:52;;;;;;;8.52;4.32;;;;;;;28.84;35.98;98910.19;4990531;28;20620;-56
2022/05/30 10:45:25;;;;;;;7.57;4.70;;;;;;;28.94;35.93;98913.91;4990152;28;20289;-56
2022/05/30 10:47:55;;;;;;;7.85;4.70;;;;;;;28.70;36.63;98901.47;4991911;28;20338;-56
2022/05/30 10:50:42;;;;;;;5.72;4.90;;;;;;;28.72;37.90;98897.78;4989472;28;20241;-56
2022/05/30 10:53:16;;;;;;;10.38;4.97;;;;;;;28.80;36.79;98897.25;4990185;28;20194;-56
2022/05/30 10:55:48;;;;;;;7.30;5.15;;;;;;;28.84;36.81;98898.75;4989656;28;21031;-56
2022/05/30 10:58:29;;;;;;;9.40;5.55;;;;;;;28.90;37.37;98903.66;4974386;28;20277;-56
2022/05/30 11:01:00;;;;;;;4.75;4.03;;;;;;;28.85;36.60;98895.16;4972741;28;20190;-56
2022/05/30 11:03:35;;;;;;;9.60;4.97;;;;;;;29.05;36.55;98902.59;4972405;28;20670;-56
2022/05/30 11:06:08;;;;;;;8.52;4.88;;;;;;;29.19;35.71;98899.84;4970796;28;20190;-56
2022/05/30 11:08:53;;;;;;;15.80;4.65;;;;;;;29.20;35.55;98893.56;4971429;28;20218;-56
2022/05/30 11:11:27;;;;;;;8.43;4.45;;;;;;;29.32;34.96;98899.84;4971827;28;20262;-56
2022/05/30 11:14:00;;;;;;;6.68;4.18;;;;;;;29.41;34.03;98900.06;4972022;28;20251;-56
2022/05/30 11:16:39;;;;;;;9.57;5.07;;;;;;;29.56;34.75;98893.69;4971561;28;20190;-57
2022/05/30 11:19:13;;;;;;;8.65;4.47;;;;;;;29.71;33.62;98892.63;4972009;28;20221;-56
2022/05/30 11:21:46;;;;;;;7.63;4.20;;;;;;;29.60;33.29;98905.75;4972294;28;20268;-56
2022/05/30 11:24:14;;;;;;;8.95;4.43;;;;;;;29.50;34.04;98899.41;4972283;28;20206;-56
2022/05/30 11:27:00;;;;;;;5.72;4.25;;;;;;;29.63;33.89;98899.41;4972192;28;20521;-56
2022/05/30 11:30:08;;;;;;;8.88;4.57;;;;;;;29.67;33.29;98890.28;4972027;28;20325;-62
2022/05/30 11:33:00;;;;;;;7.55;4.45;;;;;;;29.94;33.48;98906.03;4972341;28;20202;-62
2022/05/30 11:35:33;;;;;;;8.98;4.75;;;;;;;29.97;32.46;98895.22;4972106;28;20596;-62
2022/05/30 11:38:20;;;;;;;8.25;4.30;;;;;;;29.88;32.14;98902.03;4972185;28;20278;-63
2022/05/30 11:40:57;;;;;;;5.07;3.88;;;;;;;30.01;31.65;98897.53;4971811;28;20190;-63
2022/05/30 11:43:48;;;;;;;7.60;5.10;;;;;;;30.13;32.29;98895.81;4988500;28;20186;-63
2022/05/30 11:46:25;;;;;;;10.27;3.90;;;;;;;30.31;32.92;98895.28;4987466;28;20198;-63
2022/05/30 11:48:58;;;;;;;8.88;4.63;;;;;;;30.49;32.34;98895.75;4989702;28;20210;-63
2022/05/30 11:51:44;;;;;;;5.70;4.18;;;;;;;30.64;32.04;98893.75;4988282;28;20273;-63
2022/05/30 11:54:28;;;;;;;8.02;4.60;;;;;;;30.62;31.22;98898.34;4989535;28;20193;-63
2022/05/30 11:57:07;;;;;;;6.20;3.75;;;;;;;30.51;31.33;98898.31;4989541;28;20589;-61
2022/05/30 11:59:51;;;;;;;8.25;4.38;;;;;;;30.29;31.25;98891.91;4989163;28;20194;-62
2022/05/30 12:02:26;;;;;;;8.48;4.00;;;;;;;30.41;31.79;98897.31;4990070;28;20573;-62